Aquidauana, Brazil
Current Conditions -  °F | °C
As of 1:00 AM on Thursday 23 Oct 2014 (Local Time) from SBCG Reporting Station
Clear Clear  
Wind Chill: 72°   Ceiling: Unl
Heat Index: 72°   Visibility: 6mi
Dew Point: 57°   Wind: 7mph
Humidity: 60%   Direction: 120°ESE
Pressure: 29.97"   Gusts: NA
Location:  20.47°S, 55.79°W
Report Text: SBCG 230400Z 12006KT CAVOK 22/14 Q1015
Loading
Personal Weather Stations






























Interactive Weather Map
Tropical Storm Tracking
New forecast layout! Learn more

10-Day Weather Forecast

Advertisements
Track Severe Weather on mobile